createdAt,value
2019-02-09T00:00:04.060Z,5.33
2019-02-09T00:05:07.885Z,5.10
2019-02-09T00:10:11.706Z,6.10
2019-02-09T00:15:15.400Z,5.80
2019-02-09T00:20:19.157Z,5.97
2019-02-09T00:25:23.011Z,6.40
2019-02-09T00:30:26.821Z,5.67
2019-02-09T00:35:30.659Z,5.97
2019-02-09T00:40:34.313Z,6.53
2019-02-09T00:45:41.358Z,6.33
2019-02-09T00:50:45.081Z,6.43
2019-02-09T00:55:48.800Z,6.20
2019-02-09T01:00:52.638Z,7.10
2019-02-09T01:05:56.416Z,6.13
2019-02-09T01:11:00.112Z,6.00
2019-02-09T01:16:03.835Z,6.10
2019-02-09T01:21:07.808Z,6.40
2019-02-09T01:26:11.518Z,7.10
2019-02-09T01:31:15.473Z,6.80
2019-02-09T01:36:19.220Z,7.07
2019-02-09T01:41:23.189Z,7.57
2019-02-09T01:46:26.855Z,6.70
2019-02-09T01:51:30.560Z,6.90
2019-02-09T01:56:34.361Z,8.23
2019-02-09T02:01:38.072Z,7.10
2019-02-09T02:06:41.830Z,6.73
2019-02-09T02:11:45.549Z,6.83
2019-02-09T02:16:49.243Z,6.83
2019-02-09T02:21:52.961Z,6.97
2019-02-09T02:26:56.821Z,6.20
2019-02-09T02:32:00.723Z,7.27
2019-02-09T02:37:04.404Z,7.10
2019-02-09T02:42:08.224Z,7.00
2019-02-09T02:47:11.875Z,6.70
2019-02-09T02:52:15.634Z,6.87
2019-02-09T02:57:19.425Z,7.23
2019-02-09T03:02:23.116Z,7.00
2019-02-09T03:07:29.751Z,7.80
2019-02-09T03:12:33.861Z,8.53
2019-02-09T03:17:37.572Z,9.10
2019-02-09T03:22:41.220Z,8.57
2019-02-09T03:27:44.918Z,10.50
2019-02-09T03:32:48.677Z,8.30
2019-02-09T03:37:53.812Z,9.07
2019-02-09T03:42:57.518Z,8.90
2019-02-09T03:48:01.260Z,8.57
2019-02-09T03:53:04.986Z,8.50
2019-02-09T03:58:08.710Z,7.90
2019-02-09T04:03:12.431Z,8.07
2019-02-09T04:08:16.171Z,6.93
2019-02-09T04:13:19.934Z,8.17
2019-02-09T04:18:23.637Z,7.73
2019-02-09T04:23:27.734Z,7.27
2019-02-09T04:28:31.519Z,6.13
2019-02-09T04:33:35.268Z,6.63
2019-02-09T04:38:38.972Z,7.50
2019-02-09T04:43:42.630Z,7.03
2019-02-09T04:48:46.311Z,6.80
2019-02-09T04:53:50.016Z,7.30
2019-02-09T04:58:53.751Z,6.50
2019-02-09T05:03:57.498Z,5.97
2019-02-09T05:09:01.352Z,7.47
2019-02-09T05:14:05.566Z,6.07
2019-02-09T05:19:09.284Z,7.40
2019-02-09T05:24:12.976Z,12.10
2019-02-09T05:29:17.015Z,13.53
2019-02-09T05:34:20.759Z,12.57
2019-02-09T05:39:25.599Z,11.13
2019-02-09T05:44:29.316Z,10.77
2019-02-09T05:49:33.023Z,9.03
2019-02-09T05:54:36.703Z,21.30
2019-02-09T05:59:40.355Z,29.60
2019-02-09T06:04:44.117Z,31.37
2019-02-09T06:09:50.398Z,27.10
2019-02-09T06:14:54.167Z,24.90
2019-02-09T06:19:57.901Z,22.33
2019-02-09T06:25:01.619Z,19.63
2019-02-09T06:30:06.544Z,18.50
2019-02-09T06:35:12.305Z,20.60
2019-02-09T06:40:16.359Z,24.50
2019-02-09T06:45:22.559Z,22.80
2019-02-09T06:50:28.776Z,23.10
2019-02-09T06:55:32.863Z,20.03
2019-02-09T07:00:36.603Z,19.53
2019-02-09T07:05:40.369Z,19.10
2019-02-09T07:10:44.352Z,20.30
2019-02-09T07:15:48.174Z,19.37
2019-02-09T07:20:51.936Z,20.30
2019-02-09T07:25:55.749Z,19.37
2019-02-09T07:30:59.491Z,18.80
2019-02-09T07:36:03.252Z,17.47
2019-02-09T07:41:07.079Z,17.90
2019-02-09T07:46:10.813Z,17.43
2019-02-09T07:51:14.553Z,15.23
2019-02-09T07:56:18.281Z,14.60
2019-02-09T08:01:22.104Z,17.27
2019-02-09T08:06:25.793Z,16.90
2019-02-09T08:11:29.581Z,14.97
2019-02-09T08:16:33.345Z,13.93
2019-02-09T08:21:37.194Z,12.53
2019-02-09T08:26:40.949Z,12.93
2019-02-09T08:31:44.995Z,11.80
2019-02-09T08:36:48.822Z,10.80
2019-02-09T08:41:52.629Z,11.83
2019-02-09T08:46:56.412Z,9.80
2019-02-09T08:52:00.161Z,9.63
2019-02-09T08:57:03.959Z,9.53
2019-02-09T09:02:07.711Z,9.77
2019-02-09T09:07:11.465Z,9.27
2019-02-09T09:12:15.362Z,10.33
2019-02-09T09:17:19.046Z,9.83
2019-02-09T09:22:22.786Z,9.43
2019-02-09T09:27:26.569Z,9.73
2019-02-09T09:32:30.351Z,9.07
2019-02-09T09:37:34.075Z,9.23
2019-02-09T09:42:37.817Z,8.50
2019-02-09T09:47:41.556Z,8.77
2019-02-09T09:52:45.380Z,7.57
2019-02-09T09:57:49.628Z,8.27
2019-02-09T10:02:53.722Z,7.87
2019-02-09T10:07:57.509Z,6.20
2019-02-09T10:13:02.576Z,6.30
2019-02-09T10:18:06.298Z,6.80
2019-02-09T10:23:10.164Z,6.20
2019-02-09T10:28:14.121Z,5.60
2019-02-09T10:33:17.840Z,6.10
2019-02-09T10:38:21.545Z,5.40
2019-02-09T10:43:25.745Z,5.43
2019-02-09T10:48:29.652Z,6.07
2019-02-09T10:53:33.508Z,5.00
2019-02-09T10:58:37.537Z,5.30
2019-02-09T11:03:41.450Z,5.33
2019-02-09T11:08:45.277Z,5.17
2019-02-09T11:13:49.067Z,4.87
2019-02-09T11:18:52.943Z,4.00
2019-02-09T11:23:56.724Z,4.10
2019-02-09T11:29:00.792Z,4.70
2019-02-09T11:34:04.870Z,3.90
2019-02-09T11:39:08.593Z,4.10
2019-02-09T11:44:12.534Z,4.30
2019-02-09T11:49:16.887Z,4.70
2019-02-09T11:54:21.017Z,4.53
2019-02-09T11:59:24.829Z,4.63
2019-02-09T12:04:28.710Z,4.93
2019-02-09T12:09:33.309Z,4.23
2019-02-09T12:14:37.027Z,6.17
2019-02-09T12:19:41.167Z,7.40
2019-02-09T12:24:44.999Z,9.50
2019-02-09T12:29:48.913Z,9.70
2019-02-09T12:34:52.813Z,9.30
2019-02-09T12:39:56.589Z,7.77
2019-02-09T12:45:00.442Z,6.93
2019-02-09T12:50:04.253Z,7.40
2019-02-09T12:55:08.676Z,6.80
2019-02-09T13:00:16.529Z,5.93
2019-02-09T13:05:20.233Z,6.43
2019-02-09T13:10:24.036Z,6.20
2019-02-09T13:15:28.653Z,5.40
2019-02-09T13:20:32.570Z,5.40
2019-02-09T13:25:36.467Z,5.67
2019-02-09T13:30:40.353Z,4.10
2019-02-09T13:35:44.301Z,4.47
2019-02-09T13:40:48.111Z,4.40
2019-02-09T13:45:53.315Z,4.30
2019-02-09T13:50:57.389Z,4.60
2019-02-09T13:56:01.229Z,3.87
2019-02-09T14:01:05.003Z,4.47
2019-02-09T14:06:08.867Z,3.27
2019-02-09T14:11:12.629Z,3.80
2019-02-09T14:16:16.476Z,3.70
2019-02-09T14:21:20.723Z,3.87
2019-02-09T14:26:24.512Z,3.77
2019-02-09T14:31:28.365Z,3.73
2019-02-09T14:36:32.306Z,4.00
2019-02-09T14:41:36.043Z,3.47
2019-02-09T14:46:40.045Z,3.17
2019-02-09T14:51:43.984Z,3.57
2019-02-09T14:56:48.172Z,3.33
2019-02-09T15:01:52.075Z,3.43
2019-02-09T15:06:55.820Z,3.37
2019-02-09T15:11:59.526Z,2.57
2019-02-09T15:17:05.564Z,3.17
2019-02-09T15:22:09.273Z,3.17
2019-02-09T15:27:13.103Z,3.00
2019-02-09T15:32:17.131Z,2.70
2019-02-09T15:37:20.940Z,2.50
2019-02-09T15:42:24.847Z,2.27
2019-02-09T15:47:28.773Z,2.50
2019-02-09T15:52:33.825Z,2.30
2019-02-09T15:57:37.536Z,2.33
2019-02-09T16:02:41.312Z,2.53
2019-02-09T16:07:46.251Z,3.10
2019-02-09T16:12:50.158Z,2.40
2019-02-09T16:17:54.061Z,2.87
2019-02-09T16:22:59.477Z,2.73
2019-02-09T16:28:05.281Z,2.87
2019-02-09T16:33:09.430Z,2.90
2019-02-09T16:38:13.454Z,2.63
2019-02-09T16:43:17.170Z,2.97
2019-02-09T16:48:21.261Z,3.00
2019-02-09T16:53:25.205Z,3.17
2019-02-09T16:58:29.046Z,3.13
2019-02-09T17:03:33.634Z,2.70
2019-02-09T17:08:37.432Z,2.40
2019-02-09T17:13:41.171Z,2.90
2019-02-09T17:18:45.047Z,2.50
2019-02-09T17:23:50.039Z,2.60
2019-02-09T17:28:53.861Z,3.00
2019-02-09T17:33:57.686Z,2.50
2019-02-09T17:39:01.476Z,2.70
2019-02-09T17:44:06.684Z,2.87
2019-02-09T17:49:10.586Z,2.50
2019-02-09T17:54:14.606Z,2.43
2019-02-09T17:59:18.360Z,2.63
2019-02-09T18:04:22.188Z,2.20
2019-02-09T18:09:26.057Z,2.10
2019-02-09T18:14:29.928Z,2.30
2019-02-09T18:19:33.792Z,2.13
2019-02-09T18:24:37.713Z,2.37
2019-02-09T18:29:41.549Z,2.23
2019-02-09T18:34:45.392Z,2.00
2019-02-09T18:39:49.195Z,2.40
2019-02-09T18:44:53.389Z,2.97
2019-02-09T18:49:57.352Z,2.37
2019-02-09T18:55:01.217Z,2.30
2019-02-09T19:00:05.845Z,2.43
2019-02-09T19:05:10.346Z,2.30
2019-02-09T19:10:16.863Z,1.97
2019-02-09T19:15:23.007Z,2.27
2019-02-09T19:20:29.531Z,2.47
2019-02-09T19:25:34.085Z,2.90
2019-02-09T19:30:37.807Z,2.57
2019-02-09T19:35:41.788Z,2.37
2019-02-09T19:40:45.583Z,2.40
2019-02-09T19:45:51.821Z,2.53
2019-02-09T19:50:55.684Z,2.70
2019-02-09T19:55:59.402Z,2.50
2019-02-09T20:01:04.961Z,3.00
2019-02-09T20:06:09.009Z,3.43
2019-02-09T20:11:12.852Z,3.33
2019-02-09T20:16:16.885Z,3.40
2019-02-09T20:21:20.943Z,2.73
2019-02-09T20:26:25.305Z,3.87
2019-02-09T20:31:29.627Z,3.43
2019-02-09T20:36:34.443Z,3.57
2019-02-09T20:41:38.489Z,3.43
2019-02-09T20:46:42.337Z,3.40
2019-02-09T20:51:46.708Z,3.97
2019-02-09T20:56:50.513Z,3.73
2019-02-09T21:01:54.261Z,4.27
2019-02-09T21:06:59.146Z,4.07
2019-02-09T21:12:03.410Z,3.70
2019-02-09T21:17:07.326Z,3.90
2019-02-09T21:22:11.215Z,3.93
2019-02-09T21:27:15.277Z,4.30
2019-02-09T21:32:19.131Z,4.90
2019-02-09T21:37:23.194Z,5.23
2019-02-09T21:42:27.181Z,6.90
2019-02-09T21:47:31.127Z,6.00
2019-02-09T21:52:35.237Z,5.70
2019-02-09T21:57:38.978Z,5.37
2019-02-09T22:02:42.976Z,5.97
2019-02-09T22:07:46.809Z,6.37
2019-02-09T22:12:50.820Z,6.57
2019-02-09T22:17:54.827Z,6.73
2019-02-09T22:22:58.728Z,7.10
2019-02-09T22:28:02.446Z,6.70
2019-02-09T22:33:08.587Z,6.77
2019-02-09T22:38:12.501Z,7.80
2019-02-09T22:43:16.534Z,7.70
2019-02-09T22:48:39.697Z,9.17
2019-02-09T22:53:43.587Z,8.90
2019-02-09T22:58:47.680Z,8.87
2019-02-09T23:04:17.118Z,9.47
2019-02-09T23:09:23.138Z,10.80
2019-02-09T23:14:27.040Z,10.47
2019-02-09T23:19:32.130Z,10.50
2019-02-09T23:24:35.904Z,12.27
2019-02-09T23:29:39.829Z,12.33
2019-02-09T23:34:43.690Z,13.37
2019-02-09T23:39:47.422Z,12.20
2019-02-09T23:44:51.379Z,11.30
2019-02-09T23:49:55.224Z,12.83
2019-02-09T23:55:00.270Z,13.10
